sensor_id;sensor_type;location;lat;lon;timestamp;P1;durP1;ratioP1;P2;durP2;ratioP2
77278;SDS011;66332;50.436;15.378;2023-09-18T00:00:06;11.40;;;7.20;;
77278;SDS011;66332;50.436;15.378;2023-09-18T00:05:12;12.90;;;7.50;;
77278;SDS011;66332;50.436;15.378;2023-09-18T00:09:54;11.25;;;7.20;;
77278;SDS011;66332;50.436;15.378;2023-09-18T00:14:36;11.32;;;7.25;;
77278;SDS011;66332;50.436;15.378;2023-09-18T00:19:17;11.68;;;7.63;;
77278;SDS011;66332;50.436;15.378;2023-09-18T00:23:58;11.25;;;7.43;;
77278;SDS011;66332;50.436;15.378;2023-09-18T00:28:38;11.50;;;7.25;;
77278;SDS011;66332;50.436;15.378;2023-09-18T00:33:19;11.13;;;7.25;;
77278;SDS011;66332;50.436;15.378;2023-09-18T00:38:01;11.27;;;7.00;;
77278;SDS011;66332;50.436;15.378;2023-09-18T00:42:44;14.07;;;7.55;;
77278;SDS011;66332;50.436;15.378;2023-09-18T00:47:24;11.77;;;7.35;;
77278;SDS011;66332;50.436;15.378;2023-09-18T00:52:06;11.52;;;7.28;;
77278;SDS011;66332;50.436;15.378;2023-09-18T00:56:48;10.60;;;7.00;;
77278;SDS011;66332;50.436;15.378;2023-09-18T01:01:34;11.23;;;6.75;;
77278;SDS011;66332;50.436;15.378;2023-09-18T01:06:15;12.80;;;7.38;;
77278;SDS011;66332;50.436;15.378;2023-09-18T01:10:56;10.85;;;6.88;;
77278;SDS011;66332;50.436;15.378;2023-09-18T01:16:08;11.50;;;7.28;;
77278;SDS011;66332;50.436;15.378;2023-09-18T01:21:03;11.20;;;7.30;;
77278;SDS011;66332;50.436;15.378;2023-09-18T01:25:44;11.07;;;7.68;;
77278;SDS011;66332;50.436;15.378;2023-09-18T01:30:25;10.90;;;6.70;;
77278;SDS011;66332;50.436;15.378;2023-09-18T01:35:05;10.50;;;6.93;;
77278;SDS011;66332;50.436;15.378;2023-09-18T01:39:49;10.63;;;6.88;;
77278;SDS011;66332;50.436;15.378;2023-09-18T01:44:34;10.13;;;6.70;;
77278;SDS011;66332;50.436;15.378;2023-09-18T01:49:15;11.80;;;7.90;;
77278;SDS011;66332;50.436;15.378;2023-09-18T01:53:55;11.18;;;7.28;;
77278;SDS011;66332;50.436;15.378;2023-09-18T01:58:36;11.40;;;7.15;;
77278;SDS011;66332;50.436;15.378;2023-09-18T02:03:17;11.13;;;7.70;;
77278;SDS011;66332;50.436;15.378;2023-09-18T02:08:01;10.98;;;7.43;;
77278;SDS011;66332;50.436;15.378;2023-09-18T02:12:41;11.50;;;7.18;;
77278;SDS011;66332;50.436;15.378;2023-09-18T02:17:22;12.00;;;7.55;;
77278;SDS011;66332;50.436;15.378;2023-09-18T02:22:03;13.18;;;7.63;;
77278;SDS011;66332;50.436;15.378;2023-09-18T02:26:44;11.90;;;7.63;;
77278;SDS011;66332;50.436;15.378;2023-09-18T02:31:25;12.10;;;7.88;;
77278;SDS011;66332;50.436;15.378;2023-09-18T02:36:07;12.18;;;7.88;;
77278;SDS011;66332;50.436;15.378;2023-09-18T02:40:48;12.48;;;8.13;;
77278;SDS011;66332;50.436;15.378;2023-09-18T02:45:28;13.97;;;8.13;;
77278;SDS011;66332;50.436;15.378;2023-09-18T02:50:09;14.30;;;8.13;;
77278;SDS011;66332;50.436;15.378;2023-09-18T02:54:51;14.38;;;8.63;;
77278;SDS011;66332;50.436;15.378;2023-09-18T02:59:32;12.50;;;8.00;;
77278;SDS011;66332;50.436;15.378;2023-09-18T03:04:12;12.05;;;7.88;;
77278;SDS011;66332;50.436;15.378;2023-09-18T03:08:53;12.70;;;8.38;;
77278;SDS011;66332;50.436;15.378;2023-09-18T03:13:34;12.93;;;8.13;;
77278;SDS011;66332;50.436;15.378;2023-09-18T03:18:15;13.07;;;8.55;;
77278;SDS011;66332;50.436;15.378;2023-09-18T03:22:59;12.52;;;8.52;;
77278;SDS011;66332;50.436;15.378;2023-09-18T03:27:41;13.15;;;8.80;;
77278;SDS011;66332;50.436;15.378;2023-09-18T03:32:22;13.85;;;9.00;;
77278;SDS011;66332;50.436;15.378;2023-09-18T03:37:03;14.73;;;8.75;;
77278;SDS011;66332;50.436;15.378;2023-09-18T03:41:43;14.07;;;8.57;;
77278;SDS011;66332;50.436;15.378;2023-09-18T03:46:24;13.05;;;8.55;;
77278;SDS011;66332;50.436;15.378;2023-09-18T03:51:05;13.25;;;8.73;;
77278;SDS011;66332;50.436;15.378;2023-09-18T03:55:48;15.43;;;9.32;;
77278;SDS011;66332;50.436;15.378;2023-09-18T04:00:28;14.57;;;8.70;;
77278;SDS011;66332;50.436;15.378;2023-09-18T04:05:09;14.05;;;8.93;;
77278;SDS011;66332;50.436;15.378;2023-09-18T04:09:50;13.90;;;8.88;;
77278;SDS011;66332;50.436;15.378;2023-09-18T04:14:31;12.98;;;8.77;;
77278;SDS011;66332;50.436;15.378;2023-09-18T04:19:12;15.32;;;9.27;;
77278;SDS011;66332;50.436;15.378;2023-09-18T04:23:53;14.65;;;8.55;;
77278;SDS011;66332;50.436;15.378;2023-09-18T04:28:37;14.02;;;8.90;;
77278;SDS011;66332;50.436;15.378;2023-09-18T04:33:18;15.32;;;8.45;;
77278;SDS011;66332;50.436;15.378;2023-09-18T04:37:59;16.95;;;9.48;;
77278;SDS011;66332;50.436;15.378;2023-09-18T04:42:40;14.10;;;9.38;;
77278;SDS011;66332;50.436;15.378;2023-09-18T04:47:21;14.80;;;9.73;;
77278;SDS011;66332;50.436;15.378;2023-09-18T04:57:02;15.23;;;9.30;;
77278;SDS011;66332;50.436;15.378;2023-09-18T05:01:44;16.00;;;9.27;;
77278;SDS011;66332;50.436;15.378;2023-09-18T07:11:58;14.18;;;8.48;;
77278;SDS011;66332;50.436;15.378;2023-09-18T09:34:47;12.03;;;8.63;;
77278;SDS011;66332;50.436;15.378;2023-09-18T09:49:09;11.93;;;7.82;;
77278;SDS011;66332;50.436;15.378;2023-09-18T09:53:50;10.88;;;7.88;;
77278;SDS011;66332;50.436;15.378;2023-09-18T09:58:31;10.52;;;7.15;;
77278;SDS011;66332;50.436;15.378;2023-09-18T10:03:13;10.85;;;6.82;;
77278;SDS011;66332;50.436;15.378;2023-09-18T10:08:00;12.50;;;7.82;;
77278;SDS011;66332;50.436;15.378;2023-09-18T10:12:44;11.75;;;7.43;;
77278;SDS011;66332;50.436;15.378;2023-09-18T10:17:27;10.52;;;6.93;;
77278;SDS011;66332;50.436;15.378;2023-09-18T10:27:07;12.23;;;7.32;;
77278;SDS011;66332;50.436;15.378;2023-09-18T10:31:49;13.43;;;7.95;;
77278;SDS011;66332;50.436;15.378;2023-09-18T10:36:34;10.52;;;7.05;;
77278;SDS011;66332;50.436;15.378;2023-09-18T10:41:18;11.43;;;7.20;;
77278;SDS011;66332;50.436;15.378;2023-09-18T10:46:01;11.52;;;7.53;;
77278;SDS011;66332;50.436;15.378;2023-09-18T10:50:42;11.73;;;7.38;;
77278;SDS011;66332;50.436;15.378;2023-09-18T10:55:24;10.50;;;6.32;;
77278;SDS011;66332;50.436;15.378;2023-09-18T11:00:07;10.35;;;6.93;;
77278;SDS011;66332;50.436;15.378;2023-09-18T11:04:54;10.55;;;5.82;;
77278;SDS011;66332;50.436;15.378;2023-09-18T11:09:42;8.45;;;5.30;;
77278;SDS011;66332;50.436;15.378;2023-09-18T11:19:40;9.88;;;5.55;;
77278;SDS011;66332;50.436;15.378;2023-09-18T11:24:24;9.52;;;5.38;;
77278;SDS011;66332;50.436;15.378;2023-09-18T11:29:10;10.35;;;5.60;;
77278;SDS011;66332;50.436;15.378;2023-09-18T11:33:52;9.70;;;5.50;;
77278;SDS011;66332;50.436;15.378;2023-09-18T11:38:34;10.60;;;5.65;;
77278;SDS011;66332;50.436;15.378;2023-09-18T11:43:31;9.52;;;5.07;;
77278;SDS011;66332;50.436;15.378;2023-09-18T11:48:16;10.00;;;5.05;;
77278;SDS011;66332;50.436;15.378;2023-09-18T11:52:57;8.32;;;5.10;;
77278;SDS011;66332;50.436;15.378;2023-09-18T11:57:38;9.18;;;5.20;;
77278;SDS011;66332;50.436;15.378;2023-09-18T12:02:27;8.35;;;5.03;;
77278;SDS011;66332;50.436;15.378;2023-09-18T12:07:08;8.75;;;5.40;;
77278;SDS011;66332;50.436;15.378;2023-09-18T12:11:50;9.23;;;5.18;;
77278;SDS011;66332;50.436;15.378;2023-09-18T12:16:37;13.13;;;5.50;;
77278;SDS011;66332;50.436;15.378;2023-09-18T12:21:21;11.13;;;6.22;;
77278;SDS011;66332;50.436;15.378;2023-09-18T12:26:02;11.07;;;5.80;;
77278;SDS011;66332;50.436;15.378;2023-09-18T12:30:44;9.18;;;5.65;;
77278;SDS011;66332;50.436;15.378;2023-09-18T12:35:27;8.55;;;5.63;;
77278;SDS011;66332;50.436;15.378;2023-09-18T12:40:29;8.30;;;5.10;;
77278;SDS011;66332;50.436;15.378;2023-09-18T12:45:10;10.00;;;5.78;;
77278;SDS011;66332;50.436;15.378;2023-09-18T12:49:52;9.38;;;5.97;;
77278;SDS011;66332;50.436;15.378;2023-09-18T12:54:45;8.82;;;5.32;;
77278;SDS011;66332;50.436;15.378;2023-09-18T12:59:33;10.10;;;5.70;;
77278;SDS011;66332;50.436;15.378;2023-09-18T13:04:16;9.77;;;5.72;;
77278;SDS011;66332;50.436;15.378;2023-09-18T13:09:14;10.55;;;6.03;;
77278;SDS011;66332;50.436;15.378;2023-09-18T13:13:59;10.73;;;5.63;;
77278;SDS011;66332;50.436;15.378;2023-09-18T13:18:40;12.73;;;5.82;;
77278;SDS011;66332;50.436;15.378;2023-09-18T13:23:27;12.82;;;5.70;;
77278;SDS011;66332;50.436;15.378;2023-09-18T13:28:09;10.60;;;5.75;;
77278;SDS011;66332;50.436;15.378;2023-09-18T13:32:51;9.73;;;5.55;;
77278;SDS011;66332;50.436;15.378;2023-09-18T13:37:41;8.80;;;5.40;;
77278;SDS011;66332;50.436;15.378;2023-09-18T13:42:22;9.27;;;5.55;;
77278;SDS011;66332;50.436;15.378;2023-09-18T13:47:04;9.32;;;5.63;;
77278;SDS011;66332;50.436;15.378;2023-09-18T13:51:45;9.18;;;5.82;;
77278;SDS011;66332;50.436;15.378;2023-09-18T13:56:25;8.45;;;5.32;;
77278;SDS011;66332;50.436;15.378;2023-09-18T14:01:09;7.93;;;5.15;;
77278;SDS011;66332;50.436;15.378;2023-09-18T14:05:50;8.88;;;5.72;;
77278;SDS011;66332;50.436;15.378;2023-09-18T14:10:31;8.82;;;5.28;;
77278;SDS011;66332;50.436;15.378;2023-09-18T14:15:12;10.10;;;5.93;;
77278;SDS011;66332;50.436;15.378;2023-09-18T14:19:53;10.32;;;5.43;;
77278;SDS011;66332;50.436;15.378;2023-09-18T14:24:34;9.43;;;5.72;;
77278;SDS011;66332;50.436;15.378;2023-09-18T14:29:15;13.23;;;6.20;;
77278;SDS011;66332;50.436;15.378;2023-09-18T14:33:56;9.48;;;6.10;;
77278;SDS011;66332;50.436;15.378;2023-09-18T14:38:38;10.27;;;5.95;;
77278;SDS011;66332;50.436;15.378;2023-09-18T14:43:19;10.88;;;6.10;;
77278;SDS011;66332;50.436;15.378;2023-09-18T14:48:00;10.10;;;5.55;;
77278;SDS011;66332;50.436;15.378;2023-09-18T14:52:44;11.85;;;5.82;;
77278;SDS011;66332;50.436;15.378;2023-09-18T14:57:25;9.43;;;5.63;;
77278;SDS011;66332;50.436;15.378;2023-09-18T15:02:07;10.00;;;5.38;;
77278;SDS011;66332;50.436;15.378;2023-09-18T15:06:48;10.02;;;5.28;;
77278;SDS011;66332;50.436;15.378;2023-09-18T15:11:29;10.55;;;4.90;;
77278;SDS011;66332;50.436;15.378;2023-09-18T15:16:10;8.93;;;5.05;;
77278;SDS011;66332;50.436;15.378;2023-09-18T15:20:52;10.25;;;5.40;;
77278;SDS011;66332;50.436;15.378;2023-09-18T15:25:34;9.27;;;5.45;;
77278;SDS011;66332;50.436;15.378;2023-09-18T15:30:16;9.45;;;5.63;;
77278;SDS011;66332;50.436;15.378;2023-09-18T15:34:57;9.23;;;5.80;;
77278;SDS011;66332;50.436;15.378;2023-09-18T15:39:37;11.10;;;5.55;;
77278;SDS011;66332;50.436;15.378;2023-09-18T15:44:18;10.10;;;6.22;;
77278;SDS011;66332;50.436;15.378;2023-09-18T15:49:00;10.52;;;5.88;;
77278;SDS011;66332;50.436;15.378;2023-09-18T15:53:41;13.70;;;6.10;;
77278;SDS011;66332;50.436;15.378;2023-09-18T15:58:22;10.90;;;5.95;;
77278;SDS011;66332;50.436;15.378;2023-09-18T16:03:05;13.55;;;6.28;;
77278;SDS011;66332;50.436;15.378;2023-09-18T16:07:45;11.13;;;6.00;;
77278;SDS011;66332;50.436;15.378;2023-09-18T16:12:27;16.20;;;5.95;;
77278;SDS011;66332;50.436;15.378;2023-09-18T16:17:08;10.27;;;5.60;;
77278;SDS011;66332;50.436;15.378;2023-09-18T16:21:50;14.45;;;6.25;;
77278;SDS011;66332;50.436;15.378;2023-09-18T16:26:30;13.30;;;6.90;;
77278;SDS011;66332;50.436;15.378;2023-09-18T16:31:11;13.93;;;7.68;;
77278;SDS011;66332;50.436;15.378;2023-09-18T16:35:52;12.73;;;6.63;;
77278;SDS011;66332;50.436;15.378;2023-09-18T16:40:33;11.45;;;6.45;;
77278;SDS011;66332;50.436;15.378;2023-09-18T16:45:14;12.38;;;7.18;;
77278;SDS011;66332;50.436;15.378;2023-09-18T16:49:55;11.80;;;6.60;;
77278;SDS011;66332;50.436;15.378;2023-09-18T16:54:36;12.98;;;7.65;;
77278;SDS011;66332;50.436;15.378;2023-09-18T16:59:17;12.18;;;6.70;;
77278;SDS011;66332;50.436;15.378;2023-09-18T17:03:58;13.25;;;6.57;;
77278;SDS011;66332;50.436;15.378;2023-09-18T17:08:39;10.57;;;6.38;;
77278;SDS011;66332;50.436;15.378;2023-09-18T17:13:22;13.30;;;6.40;;
77278;SDS011;66332;50.436;15.378;2023-09-18T17:18:04;11.32;;;6.95;;
77278;SDS011;66332;50.436;15.378;2023-09-18T17:22:45;12.18;;;6.75;;
77278;SDS011;66332;50.436;15.378;2023-09-18T17:27:26;14.35;;;7.13;;
77278;SDS011;66332;50.436;15.378;2023-09-18T17:32:07;13.05;;;7.35;;
77278;SDS011;66332;50.436;15.378;2023-09-18T17:36:48;13.75;;;7.07;;
77278;SDS011;66332;50.436;15.378;2023-09-18T17:41:29;17.50;;;7.63;;
77278;SDS011;66332;50.436;15.378;2023-09-18T17:46:10;12.95;;;7.93;;
77278;SDS011;66332;50.436;15.378;2023-09-18T17:50:51;10.82;;;7.22;;
77278;SDS011;66332;50.436;15.378;2023-09-18T17:55:32;11.95;;;7.32;;
77278;SDS011;66332;50.436;15.378;2023-09-18T18:00:13;13.07;;;7.22;;
77278;SDS011;66332;50.436;15.378;2023-09-18T18:04:56;13.55;;;8.15;;
77278;SDS011;66332;50.436;15.378;2023-09-18T18:09:37;14.00;;;8.40;;
77278;SDS011;66332;50.436;15.378;2023-09-18T18:14:18;16.08;;;8.45;;
77278;SDS011;66332;50.436;15.378;2023-09-18T18:18:59;14.10;;;8.13;;
77278;SDS011;66332;50.436;15.378;2023-09-18T18:23:40;14.43;;;9.00;;
77278;SDS011;66332;50.436;15.378;2023-09-18T18:28:22;15.15;;;8.77;;
77278;SDS011;66332;50.436;15.378;2023-09-18T18:33:04;15.68;;;8.75;;
77278;SDS011;66332;50.436;15.378;2023-09-18T18:37:45;14.98;;;9.00;;
77278;SDS011;66332;50.436;15.378;2023-09-18T18:42:26;15.93;;;9.75;;
77278;SDS011;66332;50.436;15.378;2023-09-18T18:47:07;15.05;;;9.38;;
77278;SDS011;66332;50.436;15.378;2023-09-18T18:51:48;18.02;;;10.18;;
77278;SDS011;66332;50.436;15.378;2023-09-18T18:56:29;15.23;;;7.95;;
77278;SDS011;66332;50.436;15.378;2023-09-18T19:01:11;16.67;;;9.63;;
77278;SDS011;66332;50.436;15.378;2023-09-18T19:05:57;14.68;;;8.10;;
77278;SDS011;66332;50.436;15.378;2023-09-18T19:10:39;16.30;;;7.97;;
77278;SDS011;66332;50.436;15.378;2023-09-18T19:15:21;15.60;;;8.18;;
77278;SDS011;66332;50.436;15.378;2023-09-18T19:20:05;12.55;;;6.65;;
77278;SDS011;66332;50.436;15.378;2023-09-18T19:24:47;11.30;;;6.18;;
77278;SDS011;66332;50.436;15.378;2023-09-18T19:29:30;10.73;;;5.10;;
77278;SDS011;66332;50.436;15.378;2023-09-18T19:34:12;9.55;;;4.75;;
77278;SDS011;66332;50.436;15.378;2023-09-18T19:38:55;9.25;;;4.15;;
77278;SDS011;66332;50.436;15.378;2023-09-18T19:43:36;10.82;;;4.55;;
77278;SDS011;66332;50.436;15.378;2023-09-18T19:48:17;8.93;;;4.50;;
77278;SDS011;66332;50.436;15.378;2023-09-18T19:52:58;10.90;;;4.25;;
77278;SDS011;66332;50.436;15.378;2023-09-18T19:57:40;8.82;;;3.92;;
77278;SDS011;66332;50.436;15.378;2023-09-18T20:02:21;8.73;;;3.60;;
77278;SDS011;66332;50.436;15.378;2023-09-18T20:07:02;8.90;;;3.85;;
77278;SDS011;66332;50.436;15.378;2023-09-18T20:11:46;8.13;;;4.10;;
77278;SDS011;66332;50.436;15.378;2023-09-18T20:16:28;9.13;;;3.67;;
77278;SDS011;66332;50.436;15.378;2023-09-18T20:21:09;9.18;;;4.20;;
77278;SDS011;66332;50.436;15.378;2023-09-18T20:25:52;9.73;;;3.60;;
77278;SDS011;66332;50.436;15.378;2023-09-18T20:30:33;8.32;;;3.40;;
77278;SDS011;66332;50.436;15.378;2023-09-18T20:35:14;8.90;;;2.80;;
77278;SDS011;66332;50.436;15.378;2023-09-18T20:39:55;7.80;;;2.58;;
77278;SDS011;66332;50.436;15.378;2023-09-18T20:44:36;8.77;;;2.50;;
77278;SDS011;66332;50.436;15.378;2023-09-18T20:49:16;5.85;;;2.22;;
77278;SDS011;66332;50.436;15.378;2023-09-18T20:53:58;8.02;;;2.22;;
77278;SDS011;66332;50.436;15.378;2023-09-18T20:58:42;5.82;;;2.10;;
77278;SDS011;66332;50.436;15.378;2023-09-18T21:03:23;5.75;;;2.08;;
77278;SDS011;66332;50.436;15.378;2023-09-18T21:08:04;6.40;;;2.20;;
77278;SDS011;66332;50.436;15.378;2023-09-18T21:12:46;7.57;;;2.03;;
77278;SDS011;66332;50.436;15.378;2023-09-18T21:17:27;6.13;;;2.17;;
77278;SDS011;66332;50.436;15.378;2023-09-18T21:22:07;5.68;;;1.92;;
77278;SDS011;66332;50.436;15.378;2023-09-18T21:26:48;7.22;;;2.10;;
77278;SDS011;66332;50.436;15.378;2023-09-18T21:31:29;6.35;;;1.85;;
77278;SDS011;66332;50.436;15.378;2023-09-18T21:40:56;8.30;;;2.13;;
77278;SDS011;66332;50.436;15.378;2023-09-18T21:45:37;7.03;;;2.00;;
77278;SDS011;66332;50.436;15.378;2023-09-18T21:50:21;6.57;;;2.03;;
77278;SDS011;66332;50.436;15.378;2023-09-18T21:59:52;6.50;;;1.90;;
77278;SDS011;66332;50.436;15.378;2023-09-18T22:04:33;7.45;;;2.10;;
77278;SDS011;66332;50.436;15.378;2023-09-18T22:09:14;7.43;;;1.98;;
77278;SDS011;66332;50.436;15.378;2023-09-18T22:13:54;6.85;;;2.00;;
77278;SDS011;66332;50.436;15.378;2023-09-18T22:18:35;8.95;;;2.30;;
77278;SDS011;66332;50.436;15.378;2023-09-18T22:28:06;9.07;;;2.40;;
77278;SDS011;66332;50.436;15.378;2023-09-18T22:32:48;7.70;;;2.67;;
77278;SDS011;66332;50.436;15.378;2023-09-18T22:37:28;8.60;;;2.90;;
77278;SDS011;66332;50.436;15.378;2023-09-18T22:57:25;9.30;;;3.17;;
77278;SDS011;66332;50.436;15.378;2023-09-18T23:02:09;8.23;;;3.15;;
77278;SDS011;66332;50.436;15.378;2023-09-18T23:06:50;7.65;;;3.40;;
77278;SDS011;66332;50.436;15.378;2023-09-18T23:11:31;8.90;;;3.53;;
77278;SDS011;66332;50.436;15.378;2023-09-18T23:16:12;8.82;;;3.75;;
77278;SDS011;66332;50.436;15.378;2023-09-18T23:20:52;7.90;;;3.58;;
77278;SDS011;66332;50.436;15.378;2023-09-18T23:25:34;8.63;;;4.32;;
77278;SDS011;66332;50.436;15.378;2023-09-18T23:30:18;11.02;;;5.05;;
77278;SDS011;66332;50.436;15.378;2023-09-18T23:35:00;11.25;;;5.32;;
77278;SDS011;66332;50.436;15.378;2023-09-18T23:39:41;10.27;;;4.80;;
77278;SDS011;66332;50.436;15.378;2023-09-18T23:44:23;10.07;;;4.30;;
77278;SDS011;66332;50.436;15.378;2023-09-18T23:49:03;9.07;;;3.53;;
77278;SDS011;66332;50.436;15.378;2023-09-18T23:53:46;8.25;;;3.50;;
77278;SDS011;66332;50.436;15.378;2023-09-18T23:58:28;9.20;;;3.63;;
